sensor_id;sensor_type;location;lat;lon;timestamp;pressure;altitude;pressure_sealevel;temperature;humidity
49973;BME280;71845;49.798;10.968;2024-01-27T00:00:18;99727.31;;;4.27;64.98
49973;BME280;71845;49.798;10.968;2024-01-27T00:02:46;99723.75;;;4.32;64.56
49973;BME280;71845;49.798;10.968;2024-01-27T00:05:12;99725.63;;;4.23;65.09
49973;BME280;71845;49.798;10.968;2024-01-27T00:07:39;99729.97;;;4.24;65.28
49973;BME280;71845;49.798;10.968;2024-01-27T00:10:07;99724.88;;;4.13;65.11
49973;BME280;71845;49.798;10.968;2024-01-27T00:12:33;99721.59;;;3.96;65.37
49973;BME280;71845;49.798;10.968;2024-01-27T00:15:00;99731.03;;;4.11;65.06
49973;BME280;71845;49.798;10.968;2024-01-27T00:17:27;99732.84;;;4.04;65.30
49973;BME280;71845;49.798;10.968;2024-01-27T00:19:56;99725.88;;;4.02;65.47
49973;BME280;71845;49.798;10.968;2024-01-27T00:22:23;99734.63;;;4.02;65.81
49973;BME280;71845;49.798;10.968;2024-01-27T00:24:49;99735.66;;;3.90;65.61
49973;BME280;71845;49.798;10.968;2024-01-27T00:27:16;99727.84;;;3.87;65.87
49973;BME280;71845;49.798;10.968;2024-01-27T00:29:42;99726.91;;;3.90;65.53
49973;BME280;71845;49.798;10.968;2024-01-27T00:32:09;99731.53;;;3.67;66.56
49973;BME280;71845;49.798;10.968;2024-01-27T00:34:35;99726.31;;;3.66;66.48
49973;BME280;71845;49.798;10.968;2024-01-27T00:37:03;99733.22;;;3.73;66.34
49973;BME280;71845;49.798;10.968;2024-01-27T00:39:31;99748.91;;;3.78;66.23
49973;BME280;71845;49.798;10.968;2024-01-27T00:41:57;99748.09;;;3.71;66.47
49973;BME280;71845;49.798;10.968;2024-01-27T00:44:24;99741.09;;;3.73;66.76
49973;BME280;71845;49.798;10.968;2024-01-27T00:46:51;99747.25;;;3.70;67.00
49973;BME280;71845;49.798;10.968;2024-01-27T00:49:18;99747.25;;;3.70;66.80
49973;BME280;71845;49.798;10.968;2024-01-27T00:51:45;99756.94;;;3.61;66.67
49973;BME280;71845;49.798;10.968;2024-01-27T00:54:13;99761.41;;;3.54;67.25
49973;BME280;71845;49.798;10.968;2024-01-27T00:56:40;99760.53;;;3.52;67.44
49973;BME280;71845;49.798;10.968;2024-01-27T00:59:06;99757.91;;;3.52;67.27
49973;BME280;71845;49.798;10.968;2024-01-27T01:01:33;99766.72;;;3.43;67.43
49973;BME280;71845;49.798;10.968;2024-01-27T01:03:59;99758.06;;;3.36;67.73
49973;BME280;71845;49.798;10.968;2024-01-27T01:06:26;99761.63;;;3.29;68.33
49973;BME280;71845;49.798;10.968;2024-01-27T01:08:52;99757.22;;;3.36;67.89
49973;BME280;71845;49.798;10.968;2024-01-27T01:11:20;99755.47;;;3.35;68.21
49973;BME280;71845;49.798;10.968;2024-01-27T01:13:47;99748.56;;;3.24;68.59
49973;BME280;71845;49.798;10.968;2024-01-27T01:16:13;99746.78;;;3.30;68.12
49973;BME280;71845;49.798;10.968;2024-01-27T01:18:40;99758.94;;;3.37;68.00
49973;BME280;71845;49.798;10.968;2024-01-27T01:21:07;99758.16;;;3.27;68.04
49973;BME280;71845;49.798;10.968;2024-01-27T01:23:34;99755.59;;;3.18;68.27
49973;BME280;71845;49.798;10.968;2024-01-27T01:26:00;99767.88;;;3.11;68.78
49973;BME280;71845;49.798;10.968;2024-01-27T01:28:29;99769.59;;;3.18;68.56
49973;BME280;71845;49.798;10.968;2024-01-27T01:30:57;99762.63;;;3.16;68.01
49973;BME280;71845;49.798;10.968;2024-01-27T01:33:24;99774.06;;;3.05;69.04
49973;BME280;71845;49.798;10.968;2024-01-27T01:35:50;99780.97;;;3.16;68.96
49973;BME280;71845;49.798;10.968;2024-01-27T01:38:17;99783.44;;;3.31;68.17
49973;BME280;71845;49.798;10.968;2024-01-27T01:40:43;99791.41;;;3.22;68.08
49973;BME280;71845;49.798;10.968;2024-01-27T01:43:10;99795.91;;;3.04;68.78
49973;BME280;71845;49.798;10.968;2024-01-27T01:45:39;99790.66;;;3.06;68.33
49973;BME280;71845;49.798;10.968;2024-01-27T01:48:07;99787.19;;;2.99;68.34
49973;BME280;71845;49.798;10.968;2024-01-27T01:50:34;99798.53;;;3.01;68.76
49973;BME280;71845;49.798;10.968;2024-01-27T01:53:00;99795.97;;;2.95;68.63
49973;BME280;71845;49.798;10.968;2024-01-27T01:55:27;99796.78;;;3.00;68.56
49973;BME280;71845;49.798;10.968;2024-01-27T01:57:53;99801.16;;;3.03;68.70
49973;BME280;71845;49.798;10.968;2024-01-27T02:00:22;99796.06;;;2.81;69.47
49973;BME280;71845;49.798;10.968;2024-01-27T02:02:50;99803.00;;;2.90;69.24
49973;BME280;71845;49.798;10.968;2024-01-27T02:05:17;99803.03;;;2.85;69.53
49973;BME280;71845;49.798;10.968;2024-01-27T02:07:44;99805.66;;;2.85;69.12
49973;BME280;71845;49.798;10.968;2024-01-27T02:10:15;99803.97;;;2.76;69.57
49973;BME280;71845;49.798;10.968;2024-01-27T02:12:42;99798.63;;;2.85;68.47
49973;BME280;71845;49.798;10.968;2024-01-27T02:15:10;99816.97;;;2.87;68.89
49973;BME280;71845;49.798;10.968;2024-01-27T02:17:38;99807.41;;;2.83;69.14
49973;BME280;71845;49.798;10.968;2024-01-27T02:20:07;99814.44;;;2.76;69.34
49973;BME280;71845;49.798;10.968;2024-01-27T02:22:34;99814.47;;;2.68;69.53
49973;BME280;71845;49.798;10.968;2024-01-27T02:25:03;99824.94;;;2.67;69.65
49973;BME280;71845;49.798;10.968;2024-01-27T02:27:30;99817.09;;;2.67;69.47
49973;BME280;71845;49.798;10.968;2024-01-27T02:29:56;99828.47;;;2.64;69.72
49973;BME280;71845;49.798;10.968;2024-01-27T02:32:23;99825.88;;;2.53;70.26
49973;BME280;71845;49.798;10.968;2024-01-27T02:34:49;99841.66;;;2.46;70.90
49973;BME280;71845;49.798;10.968;2024-01-27T02:37:17;99836.38;;;2.47;70.00
49973;BME280;71845;49.798;10.968;2024-01-27T02:39:43;99832.84;;;2.56;70.06
49973;BME280;71845;49.798;10.968;2024-01-27T02:42:11;99839.00;;;2.50;70.39
49973;BME280;71845;49.798;10.968;2024-01-27T02:44:38;99839.94;;;2.34;71.02
49973;BME280;71845;49.798;10.968;2024-01-27T02:47:05;99846.88;;;2.46;70.06
49973;BME280;71845;49.798;10.968;2024-01-27T02:49:33;99846.91;;;2.39;70.86
49973;BME280;71845;49.798;10.968;2024-01-27T02:52:00;99856.50;;;2.36;70.46
49973;BME280;71845;49.798;10.968;2024-01-27T02:54:27;99848.66;;;2.37;70.52
49973;BME280;71845;49.798;10.968;2024-01-27T02:56:54;99857.28;;;2.53;69.87
49973;BME280;71845;49.798;10.968;2024-01-27T02:59:22;99861.66;;;2.51;69.92
49973;BME280;71845;49.798;10.968;2024-01-27T03:01:49;99852.94;;;2.49;70.27
49973;BME280;71845;49.798;10.968;2024-01-27T03:04:15;99868.66;;;2.49;69.86
49973;BME280;71845;49.798;10.968;2024-01-27T03:06:42;99879.16;;;2.46;69.37
49973;BME280;71845;49.798;10.968;2024-01-27T03:09:10;99877.38;;;2.51;69.38
49973;BME280;71845;49.798;10.968;2024-01-27T03:11:36;99886.13;;;2.42;70.16
49973;BME280;71845;49.798;10.968;2024-01-27T03:14:03;99887.03;;;2.34;70.47
49973;BME280;71845;49.798;10.968;2024-01-27T03:16:31;99877.47;;;2.31;70.12
49973;BME280;71845;49.798;10.968;2024-01-27T03:18:58;99870.50;;;2.25;70.28
49973;BME280;71845;49.798;10.968;2024-01-27T03:21:25;99885.34;;;2.23;70.22
49973;BME280;71845;49.798;10.968;2024-01-27T03:23:51;99890.53;;;2.28;69.95
49973;BME280;71845;49.798;10.968;2024-01-27T03:26:18;99870.50;;;2.19;69.58
49973;BME280;71845;49.798;10.968;2024-01-27T03:28:44;99884.47;;;2.24;70.45
49973;BME280;71845;49.798;10.968;2024-01-27T03:31:11;99867.91;;;2.18;70.15
49973;BME280;71845;49.798;10.968;2024-01-27T03:33:38;99874.88;;;2.22;70.55
49973;BME280;71845;49.798;10.968;2024-01-27T03:36:09;99874.00;;;2.15;70.57
49973;BME280;71845;49.798;10.968;2024-01-27T03:38:36;99880.13;;;2.06;70.24
49973;BME280;71845;49.798;10.968;2024-01-27T03:41:02;99881.00;;;2.05;70.83
49973;BME280;71845;49.798;10.968;2024-01-27T03:43:29;99883.63;;;2.02;70.70
49973;BME280;71845;49.798;10.968;2024-01-27T03:45:56;99889.75;;;2.01;70.67
49973;BME280;71845;49.798;10.968;2024-01-27T03:48:22;99885.38;;;2.08;70.35
49973;BME280;71845;49.798;10.968;2024-01-27T03:50:50;99892.34;;;2.04;70.88
49973;BME280;71845;49.798;10.968;2024-01-27T03:53:17;99901.06;;;2.11;70.75
49973;BME280;71845;49.798;10.968;2024-01-27T03:55:44;99905.44;;;1.92;70.92
49973;BME280;71845;49.798;10.968;2024-01-27T03:58:11;99911.56;;;1.92;70.37
49973;BME280;71845;49.798;10.968;2024-01-27T04:00:37;99904.56;;;1.99;70.25
49973;BME280;71845;49.798;10.968;2024-01-27T04:03:04;99912.44;;;1.71;71.32
49973;BME280;71845;49.798;10.968;2024-01-27T04:05:31;99914.16;;;1.80;71.07
49973;BME280;71845;49.798;10.968;2024-01-27T04:07:58;99912.44;;;1.79;71.26
49973;BME280;71845;49.798;10.968;2024-01-27T04:10:25;99915.91;;;1.76;71.07
49973;BME280;71845;49.798;10.968;2024-01-27T04:12:52;99914.16;;;1.64;71.01
49973;BME280;71845;49.798;10.968;2024-01-27T04:15:18;99921.16;;;1.75;70.70
49973;BME280;71845;49.798;10.968;2024-01-27T04:17:45;99914.16;;;1.67;70.71
49973;BME280;71845;49.798;10.968;2024-01-27T04:20:11;99919.41;;;1.74;70.92
49973;BME280;71845;49.798;10.968;2024-01-27T04:22:38;99924.63;;;1.74;70.29
49973;BME280;71845;49.798;10.968;2024-01-27T04:25:09;99911.53;;;1.52;70.75
49973;BME280;71845;49.798;10.968;2024-01-27T04:27:37;99917.66;;;1.51;70.97
49973;BME280;71845;49.798;10.968;2024-01-27T04:30:05;99909.81;;;1.31;71.14
49973;BME280;71845;49.798;10.968;2024-01-27T04:32:32;99908.06;;;1.29;71.09
49973;BME280;71845;49.798;10.968;2024-01-27T04:34:59;99913.28;;;1.47;70.93
49973;BME280;71845;49.798;10.968;2024-01-27T04:37:25;99929.00;;;1.48;71.28
49973;BME280;71845;49.798;10.968;2024-01-27T04:39:52;99936.81;;;1.47;71.44
49973;BME280;71845;49.798;10.968;2024-01-27T04:42:20;99940.28;;;1.52;70.30
49973;BME280;71845;49.798;10.968;2024-01-27T04:44:46;99935.06;;;1.44;70.93
49973;BME280;71845;49.798;10.968;2024-01-27T04:47:15;99941.16;;;1.45;70.48
49973;BME280;71845;49.798;10.968;2024-01-27T04:49:46;99942.94;;;1.47;70.80
49973;BME280;71845;49.798;10.968;2024-01-27T04:52:13;99944.63;;;1.37;71.01
49973;BME280;71845;49.798;10.968;2024-01-27T04:54:43;99938.50;;;1.17;71.09
49973;BME280;71845;49.798;10.968;2024-01-27T04:57:09;99936.78;;;1.20;71.20
49973;BME280;71845;49.798;10.968;2024-01-27T04:59:37;99938.47;;;1.06;71.49
49973;BME280;71845;49.798;10.968;2024-01-27T05:02:04;99936.78;;;1.25;70.71
49973;BME280;71845;49.798;10.968;2024-01-27T05:04:30;99931.53;;;1.19;70.64
49973;BME280;71845;49.798;10.968;2024-01-27T05:06:57;99940.22;;;1.10;71.32
49973;BME280;71845;49.798;10.968;2024-01-27T05:09:24;99938.47;;;1.01;70.94
49973;BME280;71845;49.798;10.968;2024-01-27T05:11:51;99953.22;;;0.82;72.31
49973;BME280;71845;49.798;10.968;2024-01-27T05:14:19;99934.94;;;0.86;71.87
49973;BME280;71845;49.798;10.968;2024-01-27T05:16:47;99935.81;;;0.87;71.88
49973;BME280;71845;49.798;10.968;2024-01-27T05:19:13;99948.81;;;0.78;71.99
49973;BME280;71845;49.798;10.968;2024-01-27T05:21:42;99942.78;;;0.94;71.47
49973;BME280;71845;49.798;10.968;2024-01-27T05:24:10;99947.13;;;0.88;71.35
49973;BME280;71845;49.798;10.968;2024-01-27T05:26:36;99941.88;;;0.81;71.40
49973;BME280;71845;49.798;10.968;2024-01-27T05:29:03;99950.59;;;0.80;71.46
49973;BME280;71845;49.798;10.968;2024-01-27T05:31:29;99957.56;;;0.84;71.78
49973;BME280;71845;49.798;10.968;2024-01-27T05:33:57;99960.19;;;0.89;71.92
49973;BME280;71845;49.798;10.968;2024-01-27T05:36:24;99957.56;;;0.83;71.79
49973;BME280;71845;49.798;10.968;2024-01-27T05:38:51;99961.09;;;1.00;70.92
49973;BME280;71845;49.798;10.968;2024-01-27T05:41:18;99954.03;;;0.75;71.07
49973;BME280;71845;49.798;10.968;2024-01-27T05:43:44;99972.38;;;0.92;71.49
49973;BME280;71845;49.798;10.968;2024-01-27T05:46:11;99973.22;;;0.84;71.19
49973;BME280;71845;49.798;10.968;2024-01-27T05:48:37;99969.75;;;0.84;71.54
49973;BME280;71845;49.798;10.968;2024-01-27T05:51:05;99975.88;;;0.91;70.86
49973;BME280;71845;49.798;10.968;2024-01-27T05:53:35;99983.72;;;0.98;70.54
49973;BME280;71845;49.798;10.968;2024-01-27T05:56:01;99986.31;;;1.00;70.59
49973;BME280;71845;49.798;10.968;2024-01-27T05:58:28;99987.19;;;0.93;70.66
49973;BME280;71845;49.798;10.968;2024-01-27T06:00:54;99997.69;;;1.11;69.58
49973;BME280;71845;49.798;10.968;2024-01-27T06:03:21;99996.75;;;0.92;69.68
49973;BME280;71845;49.798;10.968;2024-01-27T06:05:47;99995.78;;;0.75;70.13
49973;BME280;71845;49.798;10.968;2024-01-27T06:08:15;99993.19;;;0.76;70.43
49973;BME280;71845;49.798;10.968;2024-01-27T06:10:43;99993.06;;;0.54;70.75
49973;BME280;71845;49.798;10.968;2024-01-27T06:13:10;99989.59;;;0.52;71.09
49973;BME280;71845;49.798;10.968;2024-01-27T06:15:37;99998.25;;;0.48;71.23
49973;BME280;71845;49.798;10.968;2024-01-27T06:18:04;99988.69;;;0.47;70.88
49973;BME280;71845;49.798;10.968;2024-01-27T06:20:32;99992.09;;;0.32;71.55
49973;BME280;71845;49.798;10.968;2024-01-27T06:23:00;100002.63;;;0.48;70.65
49973;BME280;71845;49.798;10.968;2024-01-27T06:25:28;100005.97;;;0.29;70.54
49973;BME280;71845;49.798;10.968;2024-01-27T06:27:55;100008.44;;;0.09;71.58
49973;BME280;71845;49.798;10.968;2024-01-27T06:30:21;100012.06;;;0.32;70.91
49973;BME280;71845;49.798;10.968;2024-01-27T06:32:48;100017.31;;;0.36;70.97
49973;BME280;71845;49.798;10.968;2024-01-27T06:35:14;100018.13;;;0.27;70.94
49973;BME280;71845;49.798;10.968;2024-01-27T06:37:41;100020.66;;;0.17;71.24
49973;BME280;71845;49.798;10.968;2024-01-27T06:40:08;100023.25;;;0.15;70.86
49973;BME280;71845;49.798;10.968;2024-01-27T06:42:36;100015.41;;;0.12;70.96
49973;BME280;71845;49.798;10.968;2024-01-27T06:45:03;100024.91;;;0.05;72.38
49973;BME280;71845;49.798;10.968;2024-01-27T06:47:30;100026.69;;;0.09;72.06
49973;BME280;71845;49.798;10.968;2024-01-27T06:49:57;100011.00;;;0.05;72.71
49973;BME280;71845;49.798;10.968;2024-01-27T06:52:24;100020.59;;;0.10;72.41
49973;BME280;71845;49.798;10.968;2024-01-27T06:54:51;100026.75;;;0.17;72.59
49973;BME280;71845;49.798;10.968;2024-01-27T06:57:19;100026.78;;;0.25;72.39
49973;BME280;71845;49.798;10.968;2024-01-27T06:59:48;100033.69;;;0.18;72.16
49973;BME280;71845;49.798;10.968;2024-01-27T07:02:18;100027.56;;;0.10;72.97
49973;BME280;71845;49.798;10.968;2024-01-27T07:04:45;100028.50;;;0.20;72.67
49973;BME280;71845;49.798;10.968;2024-01-27T07:07:11;100041.53;;;0.18;72.33
49973;BME280;71845;49.798;10.968;2024-01-27T07:09:38;100042.38;;;0.14;72.59
49973;BME280;71845;49.798;10.968;2024-01-27T07:12:07;100040.66;;;0.19;72.36
49973;BME280;71845;49.798;10.968;2024-01-27T07:14:34;100044.13;;;0.15;72.38
49973;BME280;71845;49.798;10.968;2024-01-27T07:17:04;100055.50;;;0.28;72.34
49973;BME280;71845;49.798;10.968;2024-01-27T07:19:31;100059.75;;;0.15;72.54
49973;BME280;71845;49.798;10.968;2024-01-27T07:21:58;100056.34;;;0.21;72.64
49973;BME280;71845;49.798;10.968;2024-01-27T07:24:26;100058.97;;;0.27;72.44
49973;BME280;71845;49.798;10.968;2024-01-27T07:26:54;100054.63;;;0.29;72.67
49973;BME280;71845;49.798;10.968;2024-01-27T07:29:21;100058.13;;;0.26;72.77
49973;BME280;71845;49.798;10.968;2024-01-27T07:31:49;100052.84;;;0.20;73.23
49973;BME280;71845;49.798;10.968;2024-01-27T07:34:17;100066.72;;;0.16;73.18
49973;BME280;71845;49.798;10.968;2024-01-27T07:36:44;100067.53;;;0.10;73.39
49973;BME280;71845;49.798;10.968;2024-01-27T07:39:14;100073.75;;;0.23;73.48
49973;BME280;71845;49.798;10.968;2024-01-27T07:41:41;100062.38;;;0.18;73.20
49973;BME280;71845;49.798;10.968;2024-01-27T07:44:09;100068.59;;;0.36;73.29
49973;BME280;71845;49.798;10.968;2024-01-27T07:46:36;100059.00;;;0.32;72.87
49973;BME280;71845;49.798;10.968;2024-01-27T07:49:03;100084.38;;;0.51;72.62
49973;BME280;71845;49.798;10.968;2024-01-27T07:51:32;100083.56;;;0.57;72.31
49973;BME280;71845;49.798;10.968;2024-01-27T07:53:58;100074.00;;;0.62;72.62
49973;BME280;71845;49.798;10.968;2024-01-27T07:56:25;100091.53;;;0.77;71.62
49973;BME280;71845;49.798;10.968;2024-01-27T07:58:52;100080.97;;;0.58;72.27
49973;BME280;71845;49.798;10.968;2024-01-27T08:01:19;100090.53;;;0.56;72.18
49973;BME280;71845;49.798;10.968;2024-01-27T08:03:46;100082.63;;;0.50;72.88
49973;BME280;71845;49.798;10.968;2024-01-27T08:06:15;100086.19;;;0.58;72.47
49973;BME280;71845;49.798;10.968;2024-01-27T08:08:45;100077.50;;;0.63;72.20
49973;BME280;71845;49.798;10.968;2024-01-27T08:11:12;100078.41;;;0.68;72.75
49973;BME280;71845;49.798;10.968;2024-01-27T08:13:39;100082.63;;;0.50;73.26
49973;BME280;71845;49.798;10.968;2024-01-27T08:16:07;100080.53;;;1.50;73.23
49973;BME280;71845;49.798;10.968;2024-01-27T08:18:35;100068.38;;;1.58;71.41
49973;BME280;71845;49.798;10.968;2024-01-27T08:21:04;100056.94;;;1.22;71.93
49973;BME280;71845;49.798;10.968;2024-01-27T08:23:32;100076.91;;;1.10;71.90
49973;BME280;71845;49.798;10.968;2024-01-27T08:26:00;100083.00;;;1.11;72.39
49973;BME280;71845;49.798;10.968;2024-01-27T08:28:27;100083.03;;;1.19;71.54
49973;BME280;71845;49.798;10.968;2024-01-27T08:30:53;100078.59;;;1.02;72.72
49973;BME280;71845;49.798;10.968;2024-01-27T08:33:20;100077.81;;;1.19;72.43
49973;BME280;71845;49.798;10.968;2024-01-27T08:35:47;100088.28;;;1.23;72.08
49973;BME280;71845;49.798;10.968;2024-01-27T08:38:14;100090.03;;;1.26;71.63
49973;BME280;71845;49.798;10.968;2024-01-27T08:40:41;100086.50;;;1.16;72.00
49973;BME280;71845;49.798;10.968;2024-01-27T08:43:12;100093.44;;;1.08;72.82
49973;BME280;71845;49.798;10.968;2024-01-27T08:45:38;100103.00;;;1.07;72.82
49973;BME280;71845;49.798;10.968;2024-01-27T08:48:07;100104.81;;;1.19;73.61
49973;BME280;71845;49.798;10.968;2024-01-27T08:50:35;100103.09;;;1.23;72.64
49973;BME280;71845;49.798;10.968;2024-01-27T08:53:02;100112.63;;;1.14;73.30
49973;BME280;71845;49.798;10.968;2024-01-27T08:55:29;100129.19;;;1.21;73.00
49973;BME280;71845;49.798;10.968;2024-01-27T08:57:56;100129.22;;;1.27;72.60
49973;BME280;71845;49.798;10.968;2024-01-27T09:00:24;100122.19;;;1.15;73.43
49973;BME280;71845;49.798;10.968;2024-01-27T09:02:51;100131.81;;;1.23;74.11
49973;BME280;71845;49.798;10.968;2024-01-27T09:05:18;100127.38;;;1.11;74.59
49973;BME280;71845;49.798;10.968;2024-01-27T09:07:46;100124.03;;;1.35;73.83
49973;BME280;71845;49.798;10.968;2024-01-27T09:10:13;100120.59;;;1.42;72.71
49973;BME280;71845;49.798;10.968;2024-01-27T09:12:41;100127.56;;;1.45;73.77
49973;BME280;71845;49.798;10.968;2024-01-27T09:15:10;100123.25;;;1.58;73.87
49973;BME280;71845;49.798;10.968;2024-01-27T09:17:38;100123.28;;;1.70;72.55
49973;BME280;71845;49.798;10.968;2024-01-27T09:20:06;100126.78;;;1.74;72.69
49973;BME280;71845;49.798;10.968;2024-01-27T09:22:32;100118.06;;;1.78;71.86
49973;BME280;71845;49.798;10.968;2024-01-27T09:24:59;100125.97;;;1.91;71.49
49973;BME280;71845;49.798;10.968;2024-01-27T09:27:26;100135.63;;;2.34;72.33
49973;BME280;71845;49.798;10.968;2024-01-27T09:29:53;100140.84;;;2.21;71.71
49973;BME280;71845;49.798;10.968;2024-01-27T09:32:21;100143.47;;;2.27;70.74
49973;BME280;71845;49.798;10.968;2024-01-27T09:34:49;100134.75;;;2.28;69.70
49973;BME280;71845;49.798;10.968;2024-01-27T09:37:19;100129.53;;;2.41;69.53
49973;BME280;71845;49.798;10.968;2024-01-27T09:39:45;100133.91;;;2.39;69.94
49973;BME280;71845;49.798;10.968;2024-01-27T09:42:13;100133.88;;;2.43;70.34
49973;BME280;71845;49.798;10.968;2024-01-27T09:44:43;100136.50;;;2.47;70.31
49973;BME280;71845;49.798;10.968;2024-01-27T09:47:10;100146.09;;;2.51;69.41
49973;BME280;71845;49.798;10.968;2024-01-27T09:49:39;100130.38;;;2.68;68.29
49973;BME280;71845;49.798;10.968;2024-01-27T09:52:08;100144.34;;;2.73;68.87
49973;BME280;71845;49.798;10.968;2024-01-27T09:54:35;100154.81;;;2.70;69.38
49973;BME280;71845;49.798;10.968;2024-01-27T09:57:02;100143.47;;;2.83;67.99
49973;BME280;71845;49.798;10.968;2024-01-27T09:59:31;100130.38;;;2.76;68.31
49973;BME280;71845;49.798;10.968;2024-01-27T10:02:00;100146.09;;;2.90;68.20
49973;BME280;71845;49.798;10.968;2024-01-27T10:04:27;100146.91;;;3.06;67.73
49973;BME280;71845;49.798;10.968;2024-01-27T10:06:58;100140.81;;;3.11;67.77
49973;BME280;71845;49.798;10.968;2024-01-27T10:09:27;100137.34;;;2.81;68.12
49973;BME280;71845;49.798;10.968;2024-01-27T10:11:55;100133.84;;;3.03;67.95
49973;BME280;71845;49.798;10.968;2024-01-27T10:14:23;100139.91;;;3.20;67.38
49973;BME280;71845;49.798;10.968;2024-01-27T10:16:50;100138.19;;;3.11;67.99
49973;BME280;71845;49.798;10.968;2024-01-27T10:19:18;100147.75;;;3.19;67.39
49973;BME280;71845;49.798;10.968;2024-01-27T10:21:46;100145.16;;;3.17;68.00
49973;BME280;71845;49.798;10.968;2024-01-27T10:24:14;100135.53;;;3.28;67.82
49973;BME280;71845;49.798;10.968;2024-01-27T10:26:43;100140.75;;;3.35;68.38
49973;BME280;71845;49.798;10.968;2024-01-27T10:29:11;100148.56;;;3.41;67.63
49973;BME280;71845;49.798;10.968;2024-01-27T10:31:37;100134.56;;;3.51;66.92
49973;BME280;71845;49.798;10.968;2024-01-27T10:34:05;100126.66;;;3.53;66.68
49973;BME280;71845;49.798;10.968;2024-01-27T10:36:41;100121.47;;;3.48;66.85
49973;BME280;71845;49.798;10.968;2024-01-27T10:39:18;100118.81;;;3.59;66.85
49973;BME280;71845;49.798;10.968;2024-01-27T10:41:47;100126.66;;;3.53;66.85
49973;BME280;71845;49.798;10.968;2024-01-27T10:44:16;100116.16;;;3.62;66.36
49973;BME280;71845;49.798;10.968;2024-01-27T10:46:44;100116.13;;;3.71;66.85
49973;BME280;71845;49.798;10.968;2024-01-27T10:49:13;100109.13;;;3.74;66.35
49973;BME280;71845;49.798;10.968;2024-01-27T10:51:44;100108.13;;;3.93;66.30
49973;BME280;71845;49.798;10.968;2024-01-27T10:54:14;100114.00;;;5.92;77.19
49973;BME280;71845;49.798;10.968;2024-01-27T10:56:43;100110.84;;;4.92;63.51
49973;BME280;71845;49.798;10.968;2024-01-27T10:59:13;100094.63;;;4.48;64.13
49973;BME280;71845;49.798;10.968;2024-01-27T11:01:41;100105.22;;;4.34;64.98
49973;BME280;71845;49.798;10.968;2024-01-27T11:04:10;100105.28;;;4.24;64.78
49973;BME280;71845;49.798;10.968;2024-01-27T11:06:38;100106.22;;;4.20;65.59
49973;BME280;71845;49.798;10.968;2024-01-27T11:09:05;100109.66;;;4.25;64.89
49973;BME280;71845;49.798;10.968;2024-01-27T11:11:34;100122.69;;;4.35;64.66
49973;BME280;71845;49.798;10.968;2024-01-27T11:14:03;100115.72;;;4.34;64.87
49973;BME280;71845;49.798;10.968;2024-01-27T11:16:32;100109.50;;;4.46;65.18
49973;BME280;71845;49.798;10.968;2024-01-27T11:19:00;100112.22;;;4.33;65.18
49973;BME280;71845;49.798;10.968;2024-01-27T11:21:27;100111.25;;;4.43;65.10
49973;BME280;71845;49.798;10.968;2024-01-27T11:23:54;100106.81;;;4.50;64.12
49973;BME280;71845;49.798;10.968;2024-01-27T11:26:22;100120.81;;;4.52;64.43
49973;BME280;71845;49.798;10.968;2024-01-27T11:28:49;100106.06;;;4.36;64.06
49973;BME280;71845;49.798;10.968;2024-01-27T11:31:17;100109.44;;;4.50;64.25
49973;BME280;71845;49.798;10.968;2024-01-27T11:33:47;100112.03;;;4.56;63.93
49973;BME280;71845;49.798;10.968;2024-01-27T11:36:20;100119.00;;;4.59;63.41
49973;BME280;71845;49.798;10.968;2024-01-27T11:38:49;100118.13;;;4.60;63.70
49973;BME280;71845;49.798;10.968;2024-01-27T11:41:26;100111.97;;;4.64;62.91
49973;BME280;71845;49.798;10.968;2024-01-27T11:43:53;100118.03;;;4.69;62.73
49973;BME280;71845;49.798;10.968;2024-01-27T11:46:20;100123.34;;;4.66;62.28
49973;BME280;71845;49.798;10.968;2024-01-27T11:48:50;100115.50;;;4.62;62.42
49973;BME280;71845;49.798;10.968;2024-01-27T11:51:18;100125.94;;;4.71;62.36
49973;BME280;71845;49.798;10.968;2024-01-27T11:53:45;100115.69;;;11.53;51.65
49973;BME280;71845;49.798;10.968;2024-01-27T11:56:13;100121.34;;;12.38;46.87
49973;BME280;71845;49.798;10.968;2024-01-27T11:58:46;100104.38;;;9.30;51.40
49973;BME280;71845;49.798;10.968;2024-01-27T12:01:13;100098.81;;;7.61;54.54
49973;BME280;71845;49.798;10.968;2024-01-27T12:03:40;100100.56;;;7.16;55.45
49973;BME280;71845;49.798;10.968;2024-01-27T12:06:08;100096.28;;;6.62;55.63
49973;BME280;71845;49.798;10.968;2024-01-27T12:08:35;100090.38;;;6.47;56.57
49973;BME280;71845;49.798;10.968;2024-01-27T12:11:02;100100.47;;;6.19;57.11
49973;BME280;71845;49.798;10.968;2024-01-27T12:13:28;100095.63;;;5.89;56.79
49973;BME280;71845;49.798;10.968;2024-01-27T12:15:55;100103.47;;;5.94;57.74
49973;BME280;71845;49.798;10.968;2024-01-27T12:18:22;100099.13;;;5.90;57.86
49973;BME280;71845;49.798;10.968;2024-01-27T12:20:55;100105.34;;;5.84;57.25
49973;BME280;71845;49.798;10.968;2024-01-27T12:23:23;100103.50;;;5.91;57.12
49973;BME280;71845;49.798;10.968;2024-01-27T12:25:52;100106.06;;;5.97;55.79
49973;BME280;71845;49.798;10.968;2024-01-27T12:28:19;100102.47;;;6.03;56.15
49973;BME280;71845;49.798;10.968;2024-01-27T12:30:46;100102.69;;;5.87;56.03
49973;BME280;71845;49.798;10.968;2024-01-27T12:33:13;100100.97;;;5.84;56.04
49973;BME280;71845;49.798;10.968;2024-01-27T12:35:40;100095.69;;;5.86;55.54
49973;BME280;71845;49.798;10.968;2024-01-27T12:38:06;100104.44;;;5.85;55.58
49973;BME280;71845;49.798;10.968;2024-01-27T12:40:34;100105.31;;;5.87;56.22
49973;BME280;71845;49.798;10.968;2024-01-27T12:43:01;100105.34;;;5.84;55.98
49973;BME280;71845;49.798;10.968;2024-01-27T12:45:30;100101.00;;;5.81;56.08
49973;BME280;71845;49.798;10.968;2024-01-27T12:48:00;100106.41;;;5.70;55.91
49973;BME280;71845;49.798;10.968;2024-01-27T12:50:27;100105.44;;;5.78;56.67
49973;BME280;71845;49.798;10.968;2024-01-27T12:52:54;100112.34;;;5.85;56.14
49973;BME280;71845;49.798;10.968;2024-01-27T12:55:20;100117.59;;;5.88;56.13